Time;durP1;ratioP1;P1;durP2;ratioP2;P2;SDS_P1;SDS_P2;PMS_P1;PMS_P2;Temp;Humidity;BMP_temperature;BMP_pressure;BME280_temperature;BME280_humidity;BME280_pressure;Samples;Min_cycle;Max_cycle;Signal;HPM_P1;HPM_P2
2023/04/12 00:01:35;;;;;;;15.93;7.83;;;4.20;99.90;;;;;;5028132;28;20195;-49
2023/04/12 00:04:03;;;;;;;20.03;7.33;;;4.30;99.90;;;;;;5030709;28;20436;-49
2023/04/12 00:06:31;;;;;;;13.00;6.93;;;4.30;99.90;;;;;;5030360;28;20639;-49
2023/04/12 00:09:00;;;;;;;16.90;7.37;;;4.40;99.90;;;;;;5029052;28;20446;-49
2023/04/12 00:11:27;;;;;;;15.40;7.43;;;4.40;99.90;;;;;;5028515;28;21003;-49
2023/04/12 00:13:53;;;;;;;19.93;7.37;;;4.50;99.90;;;;;;5036690;28;20441;-49
2023/04/12 00:16:19;;;;;;;18.30;8.00;;;4.50;99.90;;;;;;5029512;28;20777;-49
2023/04/12 00:18:45;;;;;;;12.27;7.20;;;4.50;99.90;;;;;;5029563;28;20450;-49
2023/04/12 00:21:12;;;;;;;12.50;7.63;;;4.50;99.90;;;;;;5032071;28;20270;-49
2023/04/12 00:23:38;;;;;;;13.23;7.20;;;4.40;99.90;;;;;;5033246;28;20199;-49
2023/04/12 00:26:04;;;;;;;12.93;7.27;;;4.30;99.90;;;;;;5032475;28;20438;-49
2023/04/12 00:28:30;;;;;;;13.40;8.10;;;4.30;99.90;;;;;;5031889;28;20801;-50
2023/04/12 00:30:55;;;;;;;11.23;6.80;;;4.20;99.90;;;;;;5036688;28;20524;-49
2023/04/12 00:33:21;;;;;;;17.23;8.40;;;4.10;99.90;;;;;;5032797;28;20640;-49
2023/04/12 00:35:47;;;;;;;15.80;7.60;;;4.10;99.90;;;;;;5032457;28;20222;-49
2023/04/12 00:38:14;;;;;;;10.60;6.50;;;4.20;99.90;;;;;;5033522;28;20312;-49
2023/04/12 00:40:41;;;;;;;12.03;7.00;;;4.20;99.90;;;;;;5032603;28;20669;-50
2023/04/12 00:43:07;;;;;;;16.50;6.77;;;4.10;99.90;;;;;;5032338;28;20437;-49
2023/04/12 00:45:34;;;;;;;14.00;7.20;;;4.10;99.90;;;;;;5032559;28;20807;-49
2023/04/12 00:48:00;;;;;;;13.53;7.00;;;4.10;99.90;;;;;;5029305;28;21051;-49
2023/04/12 00:50:26;;;;;;;16.43;6.60;;;4.00;99.90;;;;;;5030930;28;21118;-49
2023/04/12 00:52:53;;;;;;;11.13;6.80;;;4.00;99.90;;;;;;5032977;28;20445;-49
2023/04/12 00:55:19;;;;;;;13.33;6.40;;;4.00;99.90;;;;;;5032353;28;20622;-49
2023/04/12 00:57:45;;;;;;;12.87;6.73;;;4.00;99.90;;;;;;5031597;28;20458;-49
2023/04/12 01:00:11;;;;;;;12.77;5.87;;;3.90;99.90;;;;;;5031969;28;20634;-49
2023/04/12 01:02:40;;;;;;;12.93;6.00;;;3.90;99.90;;;;;;5032539;28;20434;-50
2023/04/12 01:05:06;;;;;;;14.40;6.20;;;3.90;99.90;;;;;;5032501;28;20499;-49
2023/04/12 01:07:43;;;;;;;13.20;5.47;;;3.90;99.90;;;;;;5030440;28;20431;-49
2023/04/12 01:10:41;;;;;;;10.40;6.00;;;3.80;99.90;;;;;;5032229;28;20527;-49
2023/04/12 01:13:30;;;;;;;11.10;5.30;;;3.90;99.90;;;;;;5005393;28;20526;-50
2023/04/12 01:16:05;;;;;;;10.73;4.77;;;3.90;99.90;;;;;;5020676;28;20449;-50
2023/04/12 01:18:40;;;;;;;10.90;4.97;;;3.90;99.90;;;;;;5031648;28;20428;-49
2023/04/12 01:21:15;;;;;;;12.33;5.27;;;3.80;99.90;;;;;;5032971;28;20452;-50
2023/04/12 01:24:02;;;;;;;12.87;5.10;;;3.80;99.90;;;;;;5029491;28;20434;-50
2023/04/12 01:26:40;;;;;;;7.37;4.40;;;3.90;99.90;;;;;;5029035;28;20525;-49
2023/04/12 01:29:13;;;;;;;13.93;5.33;;;3.90;99.90;;;;;;5030273;28;20453;-50
2023/04/12 01:31:51;;;;;;;8.73;4.83;;;3.90;99.90;;;;;;5031723;28;20478;-49
2023/04/12 01:34:19;;;;;;;10.43;4.70;;;3.90;99.90;;;;;;5028686;28;20445;-50
2023/04/12 01:36:47;;;;;;;19.87;5.77;;;3.90;99.90;;;;;;5030577;28;20826;-50
2023/04/12 01:39:13;;;;;;;12.03;4.83;;;3.90;99.90;;;;;;5033156;28;20433;-50
2023/04/12 01:41:44;;;;;;;8.03;5.00;;;3.80;99.90;;;;;;5031018;28;20426;-49
2023/04/12 01:44:14;;;;;;;9.00;5.37;;;3.90;99.90;;;;;;5031431;28;20499;-50
2023/04/12 01:46:39;;;;;;;9.50;4.80;;;4.00;99.90;;;;;;5034696;28;20464;-50
2023/04/12 01:49:05;;;;;;;13.60;4.53;;;4.10;99.90;;;;;;5031468;28;20426;-50
2023/04/12 01:51:46;;;;;;;20.53;5.77;;;4.10;99.90;;;;;;5031667;28;20574;-50
2023/04/12 01:54:23;;;;;;;13.23;5.37;;;4.10;99.90;;;;;;5028904;28;20187;-50
2023/04/12 01:57:00;;;;;;;10.13;5.13;;;4.00;99.90;;;;;;5031113;28;20433;-50
2023/04/12 01:59:30;;;;;;;10.00;5.10;;;4.10;99.90;;;;;;5031228;28;20571;-50
2023/04/12 02:01:56;;;;;;;9.80;5.83;;;4.10;99.90;;;;;;5030977;28;20501;-51
2023/04/12 02:04:26;;;;;;;14.33;5.67;;;4.10;99.90;;;;;;5032325;28;20429;-50
2023/04/12 02:06:52;;;;;;;16.20;6.73;;;4.10;99.90;;;;;;5030929;28;20438;-49
2023/04/12 02:09:18;;;;;;;11.40;6.00;;;4.00;96.90;;;;;;5030404;28;20496;-50
2023/04/12 02:11:47;;;;;;;10.63;6.40;;;4.00;96.90;;;;;;5031750;28;20508;-50
2023/04/12 02:14:14;;;;;;;24.43;7.53;;;4.00;99.90;;;;;;5029820;28;20183;-50
2023/04/12 02:16:41;;;;;;;12.10;7.50;;;4.00;99.90;;;;;;5030418;28;20437;-50
2023/04/12 02:19:07;;;;;;;15.00;6.70;;;4.00;99.90;;;;;;5029489;28;20434;-50
2023/04/12 02:21:44;;;;;;;22.33;8.10;;;4.00;99.90;;;;;;5031477;28;20464;-50
2023/04/12 02:24:10;;;;;;;15.13;6.73;;;3.90;99.90;;;;;;5030961;28;20437;-50
2023/04/12 02:26:37;;;;;;;17.43;7.47;;;3.90;99.90;;;;;;5028745;28;20928;-49
2023/04/12 02:29:06;;;;;;;17.90;6.80;;;3.90;99.90;;;;;;5030868;28;20942;-49
2023/04/12 02:31:33;;;;;;;9.73;6.47;;;3.90;99.90;;;;;;5030129;28;20477;-50
2023/04/12 02:33:59;;;;;;;11.07;6.63;;;3.90;99.90;;;;;;5030454;28;20952;-51
2023/04/12 02:36:24;;;;;;;12.57;6.60;;;3.90;99.90;;;;;;5030991;28;20434;-50
2023/04/12 02:38:50;;;;;;;12.30;6.03;;;3.90;99.90;;;;;;5029702;28;20191;-50
2023/04/12 02:41:21;;;;;;;11.20;6.00;;;3.80;99.90;;;;;;5031187;28;20723;-50
2023/04/12 02:43:47;;;;;;;10.20;5.30;;;3.90;99.90;;;;;;5030450;28;20438;-50
2023/04/12 02:46:18;;;;;;;20.00;5.30;;;4.00;99.90;;;;;;5030107;28;20484;-50
2023/04/12 02:48:44;;;;;;;9.50;5.10;;;4.10;99.90;;;;;;5028054;28;20241;-50
2023/04/12 02:51:10;;;;;;;12.23;5.23;;;4.20;74.10;;;;;;5029670;28;20511;-50
2023/04/12 02:53:36;;;;;;;10.87;4.43;;;4.20;35.40;;;;;;5028561;28;20443;-50
2023/04/12 02:56:04;;;;;;;14.50;5.30;;;4.20;18.20;;;;;;5030516;28;20438;-49
2023/04/12 02:58:29;;;;;;;11.93;5.33;;;4.30;1.00;;;;;;5034034;28;20646;-50
2023/04/12 03:00:58;;;;;;;9.23;5.20;;;4.20;1.00;;;;;;5063368;28;20483;-50
2023/04/12 03:03:25;;;;;;;13.67;5.30;;;4.20;1.00;;;;;;5029718;28;20194;-50
2023/04/12 03:05:51;;;;;;;13.13;5.37;;;4.20;1.00;;;;;;5033232;28;20509;-50
2023/04/12 03:08:17;;;;;;;9.77;4.70;;;4.20;1.00;;;;;;5028600;28;20845;-50
2023/04/12 03:10:43;;;;;;;9.80;4.70;;;4.10;1.00;;;;;;5030325;28;21043;-50
2023/04/12 03:13:09;;;;;;;6.60;4.70;;;4.10;1.00;;;;;;5031209;28;20438;-50
2023/04/12 03:15:35;;;;;;;5.20;4.17;;;4.10;1.00;;;;;;5029527;28;20515;-50
2023/04/12 03:18:01;;;;;;;10.67;4.97;;;4.20;1.00;;;;;;5031626;28;20969;-50
2023/04/12 03:20:27;;;;;;;8.83;4.97;;;4.10;1.00;;;;;;5029865;28;20438;-50
2023/04/12 03:22:53;;;;;;;13.03;4.70;;;4.10;1.00;;;;;;5029955;28;20187;-51
2023/04/12 03:25:18;;;;;;;9.27;5.00;;;4.10;1.00;;;;;;5030369;28;20457;-50
2023/04/12 03:27:44;;;;;;;13.47;5.77;;;4.20;1.00;;;;;;5029186;28;20187;-50
2023/04/12 03:30:10;;;;;;;16.50;4.70;;;4.20;1.00;;;;;;5031634;28;20209;-50
2023/04/12 03:32:40;;;;;;;10.73;5.37;;;4.20;1.00;;;;;;5029526;28;20457;-50
2023/04/12 03:35:06;;;;;;;11.53;4.47;;;4.30;1.00;;;;;;5028548;28;20428;-50
2023/04/12 03:37:32;;;;;;;9.93;4.40;;;4.40;1.00;;;;;;5029881;28;20449;-50
2023/04/12 03:39:58;;;;;;;10.13;4.73;;;4.40;99.90;;;;;;5028900;28;20464;-50
2023/04/12 03:42:25;;;;;;;11.70;4.50;;;4.50;99.90;;;;;;5028426;28;20940;-50
2023/04/12 03:44:53;;;;;;;18.90;5.30;;;4.50;99.90;;;;;;5029782;28;20187;-50
2023/04/12 03:47:19;;;;;;;10.20;5.30;;;4.40;99.90;;;;;;5030920;28;20653;-50
2023/04/12 03:49:46;;;;;;;8.53;4.93;;;4.50;99.90;;;;;;5028255;28;20844;-50
2023/04/12 03:52:12;;;;;;;10.90;5.13;;;4.50;99.90;;;;;;5028513;28;20441;-50
2023/04/12 03:54:37;;;;;;;10.93;5.13;;;4.50;99.90;;;;;;5027543;28;20509;-50
2023/04/12 03:57:03;;;;;;;13.30;5.30;;;4.50;99.90;;;;;;5033288;28;22177;-50
2023/04/12 03:59:29;;;;;;;12.63;5.03;;;4.50;58.70;;;;;;5034331;28;20183;-50
2023/04/12 04:01:55;;;;;;;9.20;4.67;;;4.40;73.10;;;;;;5034515;28;20212;-50
2023/04/12 04:04:22;;;;;;;6.87;4.97;;;4.40;93.40;;;;;;5033829;28;20521;-50
2023/04/12 04:06:48;;;;;;;16.53;5.33;;;4.40;99.90;;;;;;5034401;28;20456;-50
2023/04/12 04:09:14;;;;;;;15.83;4.70;;;4.40;99.90;;;;;;5033375;28;20438;-50
2023/04/12 04:11:40;;;;;;;17.93;5.00;;;4.40;99.90;;;;;;5033299;28;20474;-50
2023/04/12 04:14:06;;;;;;;8.53;4.47;;;4.30;99.90;;;;;;5034387;28;20434;-50
2023/04/12 04:16:32;;;;;;;11.07;4.63;;;4.40;99.90;;;;;;5033972;28;20647;-50
2023/04/12 04:18:57;;;;;;;10.43;4.40;;;4.40;99.90;;;;;;5033736;28;20445;-50
2023/04/12 04:21:23;;;;;;;6.20;3.70;;;4.40;99.90;;;;;;5033109;28;20278;-50
2023/04/12 04:23:50;;;;;;;6.37;3.90;;;4.40;99.90;;;;;;5033903;28;20194;-50
2023/04/12 04:26:16;;;;;;;9.73;4.27;;;4.40;70.00;;;;;;5031934;28;20562;-52
2023/04/12 04:28:45;;;;;;;10.27;3.50;;;4.40;23.00;;;;;;5034775;28;20473;-50
2023/04/12 04:31:12;;;;;;;6.57;4.13;;;4.50;1.00;;;;;;5031964;28;20265;-50
2023/04/12 04:33:38;;;;;;;10.70;3.93;;;4.50;1.00;;;;;;5035078;28;20888;-50
2023/04/12 04:36:06;;;;;;;7.47;3.43;;;4.50;1.00;;;;;;5035686;28;20430;-50
2023/04/12 04:38:32;;;;;;;6.37;3.70;;;4.50;1.00;;;;;;5034495;28;20449;-50
2023/04/12 04:41:01;;;;;;;5.70;3.10;;;4.60;99.90;;;;;;5031245;28;20444;-51
2023/04/12 04:43:29;;;;;;;6.60;3.33;;;4.70;1.00;;;;;;5032514;28;20433;-51
2023/04/12 04:45:58;;;;;;;10.70;3.60;;;4.70;99.90;;;;;;5033323;28;20897;-50
2023/04/12 04:48:23;;;;;;;6.77;3.30;;;4.60;99.90;;;;;;5032336;28;20485;-50
2023/04/12 04:50:50;;;;;;;8.13;3.40;;;4.70;1.00;;;;;;5033183;28;20477;-50
2023/04/12 04:53:18;;;;;;;5.60;3.50;;;4.70;74.40;;;;;;5031962;28;20655;-51
2023/04/12 04:55:43;;;;;;;11.37;3.80;;;4.70;99.90;;;;;;5032124;28;20849;-50
2023/04/12 04:58:09;;;;;;;6.80;3.50;;;4.70;99.90;;;;;;5035077;28;20437;-50
2023/04/12 05:00:35;;;;;;;12.97;3.73;;;4.70;99.90;;;;;;5031436;28;20184;-50
2023/04/12 05:03:01;;;;;;;6.57;3.77;;;4.70;99.90;;;;;;5033729;28;20260;-50
2023/04/12 05:05:27;;;;;;;11.30;3.43;;;4.70;1.00;;;;;;5032499;28;20580;-50
2023/04/12 05:07:54;;;;;;;11.30;3.80;;;4.70;1.00;;;;;;5031022;28;20469;-50
2023/04/12 05:10:20;;;;;;;5.70;3.33;;;4.60;1.00;;;;;;5031863;28;20288;-50
2023/04/12 05:12:45;;;;;;;5.10;3.30;;;4.70;99.90;;;;;;5031196;28;20430;-51
2023/04/12 05:15:11;;;;;;;11.27;3.57;;;4.70;99.90;;;;;;5032289;28;20639;-50
2023/04/12 05:17:36;;;;;;;5.10;3.80;;;4.70;1.00;;;;;;5031029;28;20299;-50
2023/04/12 05:20:06;;;;;;;7.73;3.53;;;4.80;1.00;;;;;;5033340;28;20256;-51
2023/04/12 05:22:32;;;;;;;5.57;3.60;;;4.80;1.00;;;;;;5030381;28;20270;-50
2023/04/12 05:24:58;;;;;;;7.70;3.50;;;4.90;99.90;;;;;;5031433;28;20533;-50
2023/04/12 05:27:26;;;;;;;9.90;3.87;;;4.90;99.90;;;;;;5032423;28;20187;-51
2023/04/12 05:29:52;;;;;;;4.93;3.53;;;4.90;99.90;;;;;;5029108;28;20195;-50
2023/04/12 05:32:18;;;;;;;8.73;3.83;;;5.00;1.00;;;;;;5032776;28;20438;-51
2023/04/12 05:34:43;;;;;;;8.13;3.77;;;5.00;99.90;;;;;;5033156;28;20429;-50
2023/04/12 05:37:09;;;;;;;6.57;3.13;;;5.10;99.90;;;;;;5032560;28;20559;-50
2023/04/12 05:39:35;;;;;;;7.60;3.87;;;5.10;1.00;;;;;;5031062;28;20635;-51
2023/04/12 05:42:01;;;;;;;10.73;3.37;;;5.20;1.00;;;;;;5029855;28;20452;-50
2023/04/12 05:44:26;;;;;;;8.77;3.80;;;5.20;1.00;;;;;;5032617;28;20187;-51
2023/04/12 05:46:52;;;;;;;10.40;3.53;;;5.20;1.00;;;;;;5031032;28;20269;-51
2023/04/12 05:49:17;;;;;;;9.60;3.40;;;5.30;1.00;;;;;;5034425;28;20658;-50
2023/04/12 05:51:43;;;;;;;7.23;3.50;;;5.30;99.90;;;;;;5030507;28;20663;-51
2023/04/12 05:54:09;;;;;;;11.77;4.23;;;5.40;99.90;;;;;;5031918;28;20195;-50
2023/04/12 05:56:35;;;;;;;7.13;3.73;;;5.50;1.00;;;;;;5030758;28;20237;-50
2023/04/12 05:59:01;;;;;;;9.47;3.80;;;5.50;99.90;;;;;;5030402;28;20930;-51
2023/04/12 06:01:33;;;;;;;4.80;3.23;;;5.60;99.90;;;;;;5031207;28;20188;-50
2023/04/12 06:04:04;;;;;;;8.40;3.37;;;5.60;99.90;;;;;;5030447;28;20856;-51
2023/04/12 06:06:30;;;;;;;12.87;3.77;;;5.80;99.90;;;;;;5032545;28;20437;-51
2023/04/12 06:08:59;;;;;;;8.00;2.90;;;6.00;99.90;;;;;;5030655;28;20437;-51
2023/04/12 06:11:26;;;;;;;7.07;3.60;;;6.20;89.10;;;;;;5030095;28;20267;-50
2023/04/12 06:13:52;;;;;;;7.60;3.10;;;6.40;30.00;;;;;;5031161;28;20516;-51
2023/04/12 06:16:17;;;;;;;8.03;3.70;;;6.50;1.00;;;;;;5029800;28;20588;-51
2023/04/12 06:18:43;;;;;;;5.83;3.10;;;6.80;1.00;;;;;;5030834;28;20188;-51
2023/04/12 06:21:08;;;;;;;9.50;3.73;;;7.00;1.00;;;;;;5030201;28;20625;-50
2023/04/12 06:23:34;;;;;;;8.07;3.53;;;7.20;1.00;;;;;;5031056;28;20627;-50
2023/04/12 06:26:00;;;;;;;7.20;3.77;;;7.40;1.00;;;;;;5029562;28;20306;-50
2023/04/12 06:28:25;;;;;;;4.00;3.10;;;7.40;1.00;;;;;;5031039;28;20184;-51
2023/04/12 06:30:51;;;;;;;7.80;3.47;;;7.60;1.00;;;;;;5031383;28;20211;-50
2023/04/12 06:33:16;;;;;;;4.80;3.20;;;7.80;1.00;;;;;;5030655;28;20183;-51
2023/04/12 06:35:42;;;;;;;4.33;3.30;;;8.00;1.00;;;;;;5031696;28;20244;-51
2023/04/12 06:38:07;;;;;;;9.30;3.43;;;8.10;1.00;;;;;;5030338;28;20214;-50
2023/04/12 06:40:33;;;;;;;10.87;3.57;;;8.30;1.00;;;;;;5030837;28;20546;-51
2023/04/12 06:42:59;;;;;;;8.50;3.07;;;8.40;1.00;;;;;;5029081;28;20278;-50
2023/04/12 06:45:24;;;;;;;5.07;2.90;;;8.60;1.00;;;;;;5030361;28;20186;-50
2023/04/12 06:47:50;;;;;;;4.63;2.97;;;8.70;1.00;;;;;;5031109;28;20231;-50
2023/04/12 06:50:17;;;;;;;6.33;3.30;;;8.70;1.00;;;;;;5030377;28;20701;-50
2023/04/12 06:52:42;;;;;;;8.77;3.17;;;9.00;1.00;;;;;;5031083;28;20588;-50
2023/04/12 06:55:08;;;;;;;6.27;3.60;;;9.10;1.00;;;;;;5030059;28;20501;-50
2023/04/12 06:57:34;;;;;;;8.57;3.77;;;9.30;1.00;;;;;;5030839;28;20217;-50
2023/04/12 07:00:00;;;;;;;4.47;3.10;;;9.50;1.00;;;;;;5030026;28;20188;-52
2023/04/12 07:02:25;;;;;;;7.10;2.90;;;10.00;1.00;;;;;;5030060;28;20214;-52
2023/04/12 07:04:54;;;;;;;7.20;3.33;;;10.20;1.00;;;;;;4999294;28;20238;-49
2023/04/12 07:07:20;;;;;;;6.70;3.13;;;10.20;1.00;;;;;;5029726;28;20194;-49
2023/04/12 07:09:51;;;;;;;6.70;3.03;;;10.30;1.00;;;;;;5027117;28;20436;-50
2023/04/12 07:12:16;;;;;;;8.73;3.50;;;10.00;1.00;;;;;;5028795;28;20460;-49
2023/04/12 07:14:42;;;;;;;6.83;3.40;;;10.00;1.00;;;;;;5029870;28;20507;-50
2023/04/12 07:17:08;;;;;;;10.33;3.90;;;10.00;1.00;;;;;;5029907;28;20192;-50
2023/04/12 07:19:33;;;;;;;6.47;3.67;;;10.00;1.00;;;;;;5028461;28;20278;-49
2023/04/12 07:21:59;;;;;;;6.50;3.30;;;9.80;1.00;;;;;;5028364;28;20611;-49
2023/04/12 07:24:25;;;;;;;6.97;3.87;;;9.70;1.00;;;;;;5029982;28;20186;-49
2023/04/12 07:26:54;;;;;;;6.17;2.83;;;9.70;1.00;;;;;;5030084;28;20790;-51
2023/04/12 07:29:20;;;;;;;4.77;3.10;;;9.70;1.00;;;;;;5030697;28;20274;-47
2023/04/12 07:31:45;;;;;;;5.63;3.17;;;9.60;1.00;;;;;;5032874;28;20557;-50
2023/04/12 07:34:11;;;;;;;9.00;3.23;;;9.60;1.00;;;;;;5034133;28;20425;-48
2023/04/12 07:36:37;;;;;;;5.77;3.17;;;9.60;1.00;;;;;;5033087;28;20175;-49
2023/04/12 07:39:03;;;;;;;6.20;3.80;;;9.60;1.00;;;;;;5035320;28;20175;-48
2023/04/12 07:41:28;;;;;;;8.00;3.33;;;9.60;1.00;;;;;;5033686;28;20653;-50
2023/04/12 07:43:54;;;;;;;4.57;3.03;;;9.70;1.00;;;;;;5037060;28;20193;-51
2023/04/12 07:46:20;;;;;;;12.67;3.40;;;9.70;1.00;;;;;;5033850;28;20731;-50
2023/04/12 07:48:45;;;;;;;5.90;3.43;;;9.80;1.00;;;;;;5034505;28;20271;-50
2023/04/12 07:51:11;;;;;;;6.60;3.50;;;9.70;1.00;;;;;;5033415;28;20211;-50
2023/04/12 07:53:37;;;;;;;6.97;3.00;;;9.60;1.00;;;;;;5033711;28;20184;-48
2023/04/12 07:56:05;;;;;;;7.10;3.20;;;9.50;1.00;;;;;;5036937;28;20325;-48
2023/04/12 07:58:31;;;;;;;4.90;3.33;;;9.30;1.00;;;;;;5033531;28;20437;-49
2023/04/12 08:00:57;;;;;;;6.00;3.50;;;9.40;1.00;;;;;;5033344;28;20867;-50
2023/04/12 08:03:23;;;;;;;6.13;3.83;;;9.30;1.00;;;;;;5033458;28;20433;-47
2023/04/12 08:05:52;;;;;;;6.80;4.30;;;9.40;1.00;;;;;;5032245;28;20218;-48
2023/04/12 08:08:21;;;;;;;12.80;3.50;;;9.30;1.00;;;;;;5033361;28;20777;-49
2023/04/12 08:10:47;;;;;;;11.20;4.07;;;9.40;1.00;;;;;;5032269;28;20475;-48
2023/04/12 08:13:13;;;;;;;7.33;3.40;;;9.50;1.00;;;;;;5032912;28;20448;-50
2023/04/12 08:15:38;;;;;;;8.30;2.90;;;9.60;1.00;;;;;;5034233;28;20946;-47
2023/04/12 08:18:04;;;;;;;7.37;3.53;;;9.50;1.00;;;;;;5032358;28;20552;-49
2023/04/12 08:20:30;;;;;;;5.13;3.00;;;9.50;1.00;;;;;;5033146;28;20211;-47
2023/04/12 08:22:56;;;;;;;8.67;3.50;;;9.60;1.00;;;;;;5033235;28;20677;-48
2023/04/12 08:25:23;;;;;;;10.60;3.20;;;9.60;1.00;;;;;;5033191;28;20517;-47
2023/04/12 08:27:49;;;;;;;8.45;3.20;;;9.70;1.00;;;;;;5032389;28;20414;-48
2023/04/12 08:30:16;;;;;;;5.73;3.77;;;9.70;1.00;;;;;;5030211;28;20213;-48
2023/04/12 08:32:42;;;;;;;9.67;3.70;;;9.70;1.00;;;;;;5034043;28;20487;-48
2023/04/12 08:35:08;;;;;;;5.53;3.20;;;9.70;1.00;;;;;;5032004;28;20445;-48
2023/04/12 08:37:34;;;;;;;8.73;3.40;;;9.80;1.00;;;;;;5033540;28;20780;-48
2023/04/12 08:40:03;;;;;;;10.80;3.20;;;9.90;1.00;;;;;;5030911;28;20443;-48
2023/04/12 08:42:30;;;;;;;9.52;3.95;;;9.90;1.00;;;;;;5028391;28;20508;-49
2023/04/12 08:44:56;;;;;;;8.27;3.40;;;9.90;1.00;;;;;;5034069;28;20271;-49
2023/04/12 08:47:22;;;;;;;8.80;3.53;;;9.90;1.00;;;;;;5031610;28;20473;-49
2023/04/12 08:49:48;;;;;;;4.90;3.50;;;9.90;1.00;;;;;;5033420;28;20501;-49
2023/04/12 08:52:14;;;;;;;5.97;2.90;;;9.90;1.00;;;;;;5031654;28;20313;-49
2023/04/12 08:54:40;;;;;;;6.73;3.50;;;9.90;1.00;;;;;;5032937;28;20187;-48
2023/04/12 08:57:07;;;;;;;6.20;3.63;;;9.90;1.00;;;;;;5031833;28;20528;-48
2023/04/12 08:59:42;;;;;;;4.87;3.43;;;9.90;1.00;;;;;;5030910;28;20183;-48
2023/04/12 09:02:08;;;;;;;9.83;3.70;;;9.90;1.00;;;;;;5032536;28;20466;-49
2023/04/12 09:04:49;;;;;;;8.07;3.30;;;10.00;1.00;;;;;;5031680;28;20421;-49
2023/04/12 09:07:15;;;;;;;6.03;3.80;;;10.00;1.00;;;;;;5028244;28;20445;-49
2023/04/12 09:09:45;;;;;;;9.90;3.87;;;10.20;1.00;;;;;;5031343;28;20881;-50
2023/04/12 09:12:12;;;;;;;4.93;3.20;;;10.30;1.00;;;;;;5032101;28;20515;-49
2023/04/12 09:14:38;;;;;;;9.03;3.67;;;10.40;1.00;;;;;;5030260;28;20456;-49
2023/04/12 09:17:19;;;;;;;7.33;3.77;;;10.50;1.00;;;;;;5032735;28;20442;-49
2023/04/12 09:19:45;;;;;;;11.77;4.73;;;10.60;1.00;;;;;;5031453;28;20853;-49
2023/04/12 09:22:10;;;;;;;6.83;3.77;;;10.60;1.00;;;;;;5031992;28;20458;-49
2023/04/12 09:24:52;;;;;;;5.00;3.80;;;10.50;1.00;;;;;;5032042;28;20181;-49
2023/04/12 09:27:21;;;;;;;6.10;3.53;;;10.60;1.00;;;;;;5032625;28;20234;-49
2023/04/12 09:29:50;;;;;;;5.53;4.20;;;10.70;1.00;;;;;;5030866;28;20560;-49
2023/04/12 09:32:25;;;;;;;10.57;3.60;;;10.80;1.00;;;;;;5032432;28;20519;-48
2023/04/12 09:34:59;;;;;;;10.73;4.10;;;11.00;1.00;;;;;;5032092;28;20964;-48
2023/04/12 09:37:25;;;;;;;6.27;3.90;;;11.10;1.00;;;;;;5031038;28;20454;-49
2023/04/12 09:40:01;;;;;;;9.18;4.20;;;11.00;1.00;;;;;;5031533;28;20484;-49
2023/04/12 09:42:27;;;;;;;6.50;4.00;;;10.90;1.00;;;;;;5031478;28;20661;-48
2023/04/12 09:44:53;;;;;;;9.87;3.90;;;11.00;1.00;;;;;;5029527;28;20437;-49
2023/04/12 09:47:19;;;;;;;5.63;3.70;;;11.10;1.00;;;;;;5032409;28;20470;-49
2023/04/12 09:49:45;;;;;;;10.83;4.03;;;11.10;1.00;;;;;;5027536;28;20441;-49
2023/04/12 09:52:13;;;;;;;5.47;3.33;;;11.20;1.00;;;;;;5033667;28;20488;-49
2023/04/12 09:54:42;;;;;;;7.97;4.13;;;11.10;1.00;;;;;;5029392;28;20640;-49
2023/04/12 09:57:08;;;;;;;6.00;4.00;;;11.10;1.00;;;;;;5027102;28;20968;-50
2023/04/12 09:59:39;;;;;;;9.60;3.53;;;11.00;1.00;;;;;;5030169;28;20772;-50
2023/04/12 10:02:10;;;;;;;7.30;4.00;;;11.00;1.00;;;;;;5029895;28;20445;-50
2023/04/12 10:04:38;;;;;;;5.60;3.57;;;11.00;1.00;;;;;;5029466;28;20218;-49
2023/04/12 10:07:04;;;;;;;6.13;3.60;;;11.00;1.00;;;;;;5029870;28;20435;-49
2023/04/12 10:09:30;;;;;;;5.23;3.67;;;11.00;1.00;;;;;;5030046;28;20920;-51
2023/04/12 10:11:58;;;;;;;6.90;3.73;;;11.10;1.00;;;;;;5031072;28;21022;-49
2023/04/12 10:14:26;;;;;;;15.20;3.93;;;11.20;1.00;;;;;;5028936;28;20914;-50
2023/04/12 10:16:55;;;;;;;8.13;3.63;;;11.10;1.00;;;;;;5031220;28;20438;-49
2023/04/12 10:19:25;;;;;;;7.47;3.70;;;11.10;1.00;;;;;;5029921;28;20442;-49
2023/04/12 10:21:51;;;;;;;11.70;3.70;;;11.10;1.00;;;;;;5031008;28;20945;-51
2023/04/12 10:24:20;;;;;;;5.07;3.77;;;11.10;1.00;;;;;;5028020;28;20799;-49
2023/04/12 10:26:49;;;;;;;15.83;4.03;;;11.00;1.00;;;;;;5029000;28;20880;-49
2023/04/12 10:29:31;;;;;;;10.87;3.77;;;11.10;1.00;;;;;;5031258;28;20434;-50
2023/04/12 10:32:18;;;;;;;10.67;3.60;;;11.20;1.00;;;;;;5029146;28;20477;-49
2023/04/12 10:34:43;;;;;;;4.40;2.70;;;11.30;1.00;;;;;;5031667;28;20430;-49
2023/04/12 10:37:09;;;;;;;4.37;2.70;;;11.50;1.00;;;;;;5029642;28;20924;-50
2023/04/12 10:39:42;;;;;;;7.33;3.10;;;11.50;1.00;;;;;;5033420;28;20196;-50
2023/04/12 10:42:23;;;;;;;6.40;2.80;;;11.50;1.00;;;;;;5030848;28;20488;-49
2023/04/12 10:44:53;;;;;;;8.13;3.80;;;11.50;1.00;;;;;;5031008;28;20451;-49
2023/04/12 10:47:47;;;;;;;6.47;3.10;;;11.50;1.00;;;;;;5030336;28;20471;-52
2023/04/12 10:50:30;;;;;;;7.60;3.20;;;11.50;1.00;;;;;;5029161;28;20437;-49
2023/04/12 10:53:17;;;;;;;10.17;3.23;;;11.40;1.00;;;;;;5028628;28;20793;-49
2023/04/12 10:55:43;;;;;;;7.13;3.17;;;11.20;1.00;;;;;;5028122;28;20446;-50
2023/04/12 10:58:09;;;;;;;5.27;3.30;;;11.10;1.00;;;;;;5030189;28;20430;-49
2023/04/12 11:00:59;;;;;;;6.00;3.47;;;11.00;1.00;;;;;;5030012;28;20521;-50
2023/04/12 11:03:27;;;;;;;8.30;3.57;;;10.80;1.00;;;;;;5029684;28;20198;-49
2023/04/12 11:06:05;;;;;;;5.50;3.00;;;10.60;1.00;;;;;;5029253;28;20464;-50
2023/04/12 11:08:31;;;;;;;9.17;3.00;;;10.40;1.00;;;;;;5028611;28;20442;-50
2023/04/12 11:11:04;;;;;;;6.73;3.30;;;10.40;1.00;;;;;;5029724;28;20466;-51
2023/04/12 11:13:38;;;;;;;8.90;3.40;;;10.20;1.00;;;;;;5030763;28;20456;-49
2023/04/12 11:16:05;;;;;;;7.80;3.43;;;10.10;1.00;;;;;;5028214;28;20557;-50
2023/04/12 11:18:37;;;;;;;7.60;3.97;;;10.00;1.00;;;;;;5029326;28;20790;-51
2023/04/12 11:21:03;;;;;;;8.53;3.53;;;10.00;1.00;;;;;;5029536;28;20509;-50
2023/04/12 11:23:30;;;;;;;5.63;3.10;;;9.90;1.00;;;;;;5028072;28;20445;-50
2023/04/12 11:25:56;;;;;;;11.30;3.23;;;9.80;1.00;;;;;;5029995;28;20437;-50
2023/04/12 11:28:22;;;;;;;11.53;3.97;;;9.70;1.00;;;;;;5029412;28;20449;-50
2023/04/12 11:30:52;;;;;;;8.53;4.00;;;9.60;1.00;;;;;;5029977;28;20998;-50
2023/04/12 11:33:38;;;;;;;6.87;3.83;;;9.60;1.00;;;;;;5030554;28;20431;-50
2023/04/12 11:36:09;;;;;;;12.33;4.40;;;9.50;1.00;;;;;;5030078;28;20446;-50
2023/04/12 11:38:36;;;;;;;7.70;3.70;;;9.50;1.00;;;;;;5029986;28;20472;-50
2023/04/12 11:41:03;;;;;;;10.37;4.13;;;9.40;1.00;;;;;;5027184;28;20453;-50
2023/04/12 11:43:29;;;;;;;16.33;4.50;;;9.40;33.70;;;;;;5029777;28;20529;-50
2023/04/12 11:45:59;;;;;;;8.20;4.40;;;9.40;79.90;;;;;;5030680;28;20442;-50
2023/04/12 11:48:26;;;;;;;7.83;4.20;;;9.30;99.90;;;;;;5029910;28;20527;-50
2023/04/12 11:50:51;;;;;;;10.77;4.77;;;9.20;99.90;;;;;;5029436;28;20478;-50
2023/04/12 11:53:18;;;;;;;7.80;4.07;;;9.10;99.90;;;;;;5030496;28;20790;-50
2023/04/12 11:55:48;;;;;;;8.13;4.20;;;9.10;99.90;;;;;;5029476;28;20203;-50
2023/04/12 11:58:14;;;;;;;5.63;4.50;;;9.00;99.90;;;;;;5030530;28;20429;-50
2023/04/12 12:00:44;;;;;;;7.20;4.53;;;9.00;99.90;;;;;;5029514;28;20441;-50
2023/04/12 12:03:10;;;;;;;6.50;4.97;;;9.00;1.00;;;;;;5029426;28;20194;-50
2023/04/12 12:05:40;;;;;;;7.60;4.63;;;9.10;1.00;;;;;;5030580;28;20949;-50
2023/04/12 12:08:09;;;;;;;10.10;4.80;;;9.20;1.00;;;;;;5027495;28;20872;-50
2023/04/12 12:10:36;;;;;;;8.90;4.77;;;9.20;1.00;;;;;;5030246;28;20828;-50
2023/04/12 12:13:02;;;;;;;15.27;5.37;;;9.40;1.00;;;;;;5031942;28;20967;-50
2023/04/12 12:15:30;;;;;;;7.07;4.53;;;9.50;1.00;;;;;;5030048;28;20443;-50
2023/04/12 12:17:56;;;;;;;9.40;5.47;;;9.60;1.00;;;;;;5034269;28;20176;-50
2023/04/12 12:20:23;;;;;;;9.17;5.40;;;9.70;1.00;;;;;;5033133;28;20440;-50
2023/04/12 12:22:49;;;;;;;5.83;4.77;;;9.70;1.00;;;;;;5029186;28;20537;-51
2023/04/12 12:25:17;;;;;;;5.43;4.90;;;9.70;1.00;;;;;;5031492;28;20485;-51
2023/04/12 12:27:47;;;;;;;8.50;5.90;;;9.60;1.00;;;;;;5030538;28;20499;-50
2023/04/12 12:30:16;;;;;;;6.63;4.43;;;9.50;1.00;;;;;;5033372;28;20451;-50
2023/04/12 12:32:43;;;;;;;7.20;4.83;;;9.40;1.00;;;;;;5032616;28;20446;-50
2023/04/12 12:35:14;;;;;;;5.40;4.07;;;9.40;1.00;;;;;;5029078;28;20609;-50
2023/04/12 12:37:57;;;;;;;8.70;5.10;;;9.40;80.40;;;;;;5045885;28;20442;-50
2023/04/12 12:40:31;;;;;;;8.43;4.50;;;9.40;1.00;;;;;;5031223;28;20446;-50
2023/04/12 12:42:57;;;;;;;6.77;5.20;;;9.40;1.00;;;;;;5033705;28;20458;-50
2023/04/12 12:45:25;;;;;;;9.70;4.80;;;9.30;37.20;;;;;;5032653;28;20940;-49
2023/04/12 12:47:58;;;;;;;6.80;4.93;;;9.40;99.90;;;;;;5030314;28;20483;-50
2023/04/12 12:50:26;;;;;;;8.63;5.40;;;9.40;99.90;;;;;;5045891;28;20467;-50
2023/04/12 12:52:53;;;;;;;9.77;5.90;;;9.30;98.00;;;;;;5031441;28;20422;-50
2023/04/12 12:55:20;;;;;;;6.30;5.30;;;9.20;1.00;;;;;;5031513;28;20473;-50
2023/04/12 12:57:47;;;;;;;8.17;5.30;;;9.20;6.50;;;;;;5033232;28;20435;-50
2023/04/12 13:00:14;;;;;;;8.87;5.80;;;9.20;67.90;;;;;;5032686;28;20449;-50
2023/04/12 13:02:40;;;;;;;12.10;5.53;;;9.30;99.90;;;;;;5033064;28;20437;-50